createdAt,value
2019-03-24T00:00:44.347Z,28.27
2019-03-24T00:03:14.653Z,27.20
2019-03-24T00:05:42.964Z,27.60
2019-03-24T00:08:11.598Z,28.57
2019-03-24T00:10:45.303Z,28.60
2019-03-24T00:13:13.487Z,29.80
2019-03-24T00:15:44.576Z,27.77
2019-03-24T00:18:21.323Z,30.63
2019-03-24T00:20:52.877Z,26.10
2019-03-24T00:23:20.924Z,28.50
2019-03-24T00:25:51.137Z,28.27
2019-03-24T00:28:19.580Z,27.00
2019-03-24T00:30:48.006Z,26.90
2019-03-24T00:33:16.005Z,28.03
2019-03-24T00:35:44.420Z,28.93
2019-03-24T00:38:12.495Z,26.87
2019-03-24T00:40:40.503Z,25.67
2019-03-24T00:43:08.940Z,27.27
2019-03-24T00:45:37.828Z,28.63
2019-03-24T00:48:05.817Z,26.20
2019-03-24T00:50:34.203Z,28.33
2019-03-24T00:53:02.520Z,27.73
2019-03-24T00:55:34.026Z,31.80
2019-03-24T00:58:04.615Z,29.20
2019-03-24T01:00:45.253Z,28.57
2019-03-24T01:03:18.104Z,29.57
2019-03-24T01:05:46.773Z,29.97
2019-03-24T01:08:14.910Z,29.90
2019-03-24T01:10:42.945Z,30.87
2019-03-24T01:13:12.444Z,31.50
2019-03-24T01:15:47.687Z,28.90
2019-03-24T01:18:10.295Z,31.50
2019-03-24T01:20:38.260Z,32.50
2019-03-24T01:23:06.243Z,28.77
2019-03-24T01:25:34.605Z,27.37
2019-03-24T01:28:02.631Z,29.13
2019-03-24T01:30:30.586Z,28.37
2019-03-24T01:32:58.640Z,28.77
2019-03-24T01:35:27.399Z,29.80
2019-03-24T01:37:55.428Z,30.10
2019-03-24T01:40:23.420Z,28.50
2019-03-24T01:42:51.446Z,27.93
2019-03-24T01:45:19.376Z,26.63
2019-03-24T01:47:47.418Z,30.53
2019-03-24T01:50:15.394Z,28.73
2019-03-24T01:52:43.392Z,29.60
2019-03-24T01:55:11.769Z,29.07
2019-03-24T01:57:39.780Z,30.77
2019-03-24T02:00:08.039Z,29.67
2019-03-24T02:02:36.079Z,29.33
2019-03-24T02:05:04.151Z,30.80
2019-03-24T02:07:32.140Z,27.93
2019-03-24T02:10:00.418Z,29.47
2019-03-24T02:12:28.572Z,28.77
2019-03-24T02:14:56.576Z,26.70
2019-03-24T02:17:24.980Z,28.97
2019-03-24T02:19:53.520Z,31.90
2019-03-24T02:22:22.123Z,30.80
2019-03-24T02:24:50.828Z,31.53
2019-03-24T02:27:18.933Z,29.63
2019-03-24T02:29:46.989Z,30.40
2019-03-24T02:32:15.103Z,31.77
2019-03-24T02:34:43.282Z,30.63
2019-03-24T02:37:11.284Z,32.00
2019-03-24T02:39:39.321Z,32.90
2019-03-24T02:42:07.341Z,31.80
2019-03-24T02:44:35.399Z,30.07
2019-03-24T02:47:03.411Z,29.57
2019-03-24T02:49:32.189Z,30.33
2019-03-24T02:52:00.216Z,31.80
2019-03-24T02:54:28.656Z,29.23
2019-03-24T02:56:56.666Z,29.70
2019-03-24T02:59:24.787Z,29.70
2019-03-24T03:01:53.157Z,27.07
2019-03-24T03:04:21.654Z,28.40
2019-03-24T03:06:49.667Z,27.57
2019-03-24T03:09:17.648Z,28.90
2019-03-24T03:11:45.655Z,29.83
2019-03-24T03:14:13.685Z,29.60
2019-03-24T03:16:41.719Z,30.63
2019-03-24T03:19:09.751Z,27.17
2019-03-24T03:21:37.767Z,30.03
2019-03-24T03:24:05.800Z,27.77
2019-03-24T03:26:33.862Z,30.00
2019-03-24T03:29:01.905Z,30.20
2019-03-24T03:31:29.906Z,29.37
2019-03-24T03:33:57.940Z,30.03
2019-03-24T03:36:25.955Z,29.90
2019-03-24T03:38:54.026Z,29.60
2019-03-24T03:41:22.027Z,31.20
2019-03-24T03:43:50.042Z,29.90
2019-03-24T03:46:18.072Z,28.63
2019-03-24T03:48:46.120Z,29.60
2019-03-24T03:51:14.113Z,32.17
2019-03-24T03:53:42.838Z,30.40
2019-03-24T03:56:10.839Z,32.77
2019-03-24T03:58:38.877Z,30.90
2019-03-24T04:01:07.903Z,32.57
2019-03-24T04:03:35.942Z,33.03
2019-03-24T04:06:03.961Z,32.00
2019-03-24T04:08:32.046Z,33.47
2019-03-24T04:11:00.045Z,32.43
2019-03-24T04:13:28.043Z,28.90
2019-03-24T04:15:56.372Z,31.03
2019-03-24T04:18:24.434Z,31.43
2019-03-24T04:20:53.038Z,32.70
2019-03-24T04:23:21.035Z,28.33
2019-03-24T04:25:49.073Z,31.10
2019-03-24T04:28:17.512Z,30.03
2019-03-24T04:30:46.060Z,28.50
2019-03-24T04:33:14.064Z,31.30
2019-03-24T04:35:42.153Z,30.20
2019-03-24T04:38:10.566Z,27.90
2019-03-24T04:40:38.621Z,29.40
2019-03-24T04:43:06.627Z,30.50
2019-03-24T04:45:34.679Z,29.97
2019-03-24T04:48:02.733Z,30.37
2019-03-24T04:50:30.777Z,31.10
2019-03-24T04:52:59.856Z,30.53
2019-03-24T04:55:27.896Z,29.40
2019-03-24T04:57:55.928Z,30.73
2019-03-24T05:00:42.353Z,30.33
2019-03-24T05:03:10.382Z,31.40
2019-03-24T05:05:39.290Z,30.80
2019-03-24T05:08:09.208Z,28.60
2019-03-24T05:10:37.249Z,30.30
2019-03-24T05:13:05.320Z,32.87
2019-03-24T05:15:33.385Z,29.27
2019-03-24T05:18:01.413Z,31.90
2019-03-24T05:20:29.517Z,32.80
2019-03-24T05:22:57.533Z,31.53
2019-03-24T05:25:26.109Z,29.70
2019-03-24T05:27:54.151Z,31.37
2019-03-24T05:30:22.294Z,30.80
2019-03-24T05:32:50.351Z,30.20
2019-03-24T05:35:20.195Z,30.90
2019-03-24T05:37:48.523Z,32.10
2019-03-24T05:40:16.573Z,30.60
2019-03-24T05:42:44.649Z,29.07
2019-03-24T05:45:12.832Z,29.67
2019-03-24T05:47:42.092Z,30.10
2019-03-24T05:50:29.383Z,33.20
2019-03-24T05:52:57.409Z,29.70
2019-03-24T05:55:28.584Z,33.10
2019-03-24T05:57:56.617Z,33.40
2019-03-24T06:00:24.775Z,32.57
2019-03-24T06:02:52.868Z,33.47
2019-03-24T06:05:20.944Z,36.27
2019-03-24T06:07:49.346Z,34.07
2019-03-24T06:10:17.649Z,34.87
2019-03-24T06:12:48.769Z,31.60
2019-03-24T06:15:16.901Z,29.80
2019-03-24T06:17:48.093Z,32.63
2019-03-24T06:20:15.741Z,31.30
2019-03-24T06:22:46.561Z,32.33
2019-03-24T06:25:14.982Z,31.57
2019-03-24T06:27:43.829Z,30.30
2019-03-24T06:30:19.653Z,30.10
2019-03-24T06:32:51.358Z,29.50
2019-03-24T06:35:19.748Z,32.10
2019-03-24T06:37:48.048Z,32.17
2019-03-24T06:40:16.121Z,33.00
2019-03-24T06:42:45.492Z,34.50
2019-03-24T06:45:14.801Z,32.20
2019-03-24T06:47:43.223Z,33.17
2019-03-24T06:50:11.544Z,32.80
2019-03-24T06:52:40.060Z,31.17
2019-03-24T06:55:08.577Z,32.87
2019-03-24T06:57:36.959Z,32.50
2019-03-24T07:00:06.873Z,34.30
2019-03-24T07:02:35.669Z,31.10
2019-03-24T07:05:04.310Z,32.40
2019-03-24T07:07:32.413Z,33.67
2019-03-24T07:10:00.502Z,32.70
2019-03-24T07:12:31.690Z,30.90
2019-03-24T07:14:59.783Z,33.23
2019-03-24T07:17:27.908Z,35.30
2019-03-24T07:19:55.932Z,31.60
2019-03-24T07:22:24.325Z,32.10
2019-03-24T07:24:52.532Z,35.40
2019-03-24T07:27:20.718Z,35.00
2019-03-24T07:29:48.872Z,34.43
2019-03-24T07:32:16.922Z,32.67
2019-03-24T07:34:50.936Z,34.90
2019-03-24T07:37:19.037Z,33.77
2019-03-24T07:39:47.117Z,32.63
2019-03-24T07:42:15.312Z,34.87
2019-03-24T07:44:43.407Z,34.50
2019-03-24T07:47:14.424Z,32.93
2019-03-24T07:49:42.525Z,34.30
2019-03-24T07:52:10.869Z,34.33
2019-03-24T07:54:38.924Z,35.70
2019-03-24T07:57:07.089Z,32.70
2019-03-24T07:59:35.120Z,34.37
2019-03-24T08:02:04.075Z,35.87
2019-03-24T08:04:32.154Z,37.27
2019-03-24T08:07:00.211Z,36.23
2019-03-24T08:09:28.280Z,48.03
2019-03-24T08:11:56.372Z,38.43
2019-03-24T08:14:24.602Z,38.80
2019-03-24T08:16:53.170Z,35.10
2019-03-24T08:19:21.294Z,39.00
2019-03-24T08:21:49.678Z,36.80
2019-03-24T08:24:17.796Z,37.67
2019-03-24T08:26:46.478Z,36.73
2019-03-24T08:29:14.837Z,37.83
2019-03-24T08:31:44.668Z,36.90
2019-03-24T08:34:19.812Z,35.30
2019-03-24T08:36:48.739Z,37.87
2019-03-24T08:39:17.180Z,37.10
2019-03-24T08:41:45.520Z,37.93
2019-03-24T08:44:13.969Z,38.97
2019-03-24T08:46:47.149Z,40.67
2019-03-24T08:49:40.307Z,40.57
2019-03-24T08:52:09.022Z,38.03
2019-03-24T08:54:48.297Z,37.40
2019-03-24T08:57:32.371Z,39.70
2019-03-24T09:00:06.629Z,38.97
2019-03-24T09:02:47.850Z,40.57
2019-03-24T09:05:18.959Z,43.17
2019-03-24T09:07:48.960Z,42.77
2019-03-24T09:10:17.009Z,44.70
2019-03-24T09:12:45.188Z,41.17
2019-03-24T09:15:13.694Z,43.00
2019-03-24T09:18:04.853Z,43.17
2019-03-24T09:20:41.548Z,47.30
2019-03-24T09:23:39.179Z,45.80
2019-03-24T09:26:08.649Z,40.47
2019-03-24T09:28:37.079Z,46.77
2019-03-24T09:31:07.093Z,43.87
2019-03-24T09:33:35.268Z,45.17
2019-03-24T09:36:03.497Z,44.13
2019-03-24T09:38:31.802Z,49.10
2019-03-24T09:41:02.762Z,45.50
2019-03-24T09:43:30.951Z,45.30
2019-03-24T09:45:59.094Z,44.90
2019-03-24T09:48:27.781Z,46.17
2019-03-24T09:50:55.939Z,46.07
2019-03-24T09:53:24.333Z,47.03
2019-03-24T09:55:55.313Z,45.50
2019-03-24T09:58:23.693Z,46.97
2019-03-24T10:00:51.866Z,46.03
2019-03-24T10:03:20.026Z,49.37
2019-03-24T10:05:48.321Z,48.50
2019-03-24T10:08:16.434Z,44.93
2019-03-24T10:10:44.747Z,48.57
2019-03-24T10:13:13.180Z,45.83
2019-03-24T10:15:41.341Z,46.77
2019-03-24T10:18:11.650Z,48.00
2019-03-24T10:20:39.788Z,48.30
2019-03-24T10:23:08.908Z,45.60
2019-03-24T10:25:37.139Z,48.37
2019-03-24T10:28:05.813Z,46.97
2019-03-24T10:30:38.985Z,47.33
2019-03-24T10:33:07.171Z,46.40
2019-03-24T10:35:35.879Z,51.20
2019-03-24T10:38:04.094Z,45.70
2019-03-24T10:40:32.237Z,49.93
2019-03-24T10:43:00.528Z,46.03
2019-03-24T10:45:28.666Z,44.70
2019-03-24T10:47:56.789Z,46.07
2019-03-24T10:50:25.159Z,48.53
2019-03-24T10:52:53.232Z,45.80
2019-03-24T10:55:21.462Z,49.00
2019-03-24T10:57:49.645Z,49.63
2019-03-24T11:00:42.447Z,47.00
2019-03-24T11:03:11.031Z,44.80
2019-03-24T11:05:39.560Z,46.90
2019-03-24T11:08:08.349Z,48.73
2019-03-24T11:10:39.420Z,46.60
2019-03-24T11:13:08.076Z,48.27
2019-03-24T11:15:36.529Z,46.50
2019-03-24T11:18:05.105Z,44.00
2019-03-24T11:20:33.830Z,45.70
2019-03-24T11:23:05.067Z,43.83
2019-03-24T11:25:33.235Z,43.50
2019-03-24T11:28:05.862Z,46.73
2019-03-24T11:30:34.322Z,42.93
2019-03-24T11:33:02.537Z,41.90
2019-03-24T11:35:31.373Z,40.87
2019-03-24T11:38:01.677Z,42.30
2019-03-24T11:40:30.107Z,46.80
2019-03-24T11:43:01.423Z,43.67
2019-03-24T11:45:29.864Z,51.27
2019-03-24T11:48:03.763Z,51.07
2019-03-24T11:50:32.201Z,47.13
2019-03-24T11:53:00.472Z,52.83
2019-03-24T11:55:28.625Z,48.77
2019-03-24T11:58:05.240Z,48.37
2019-03-24T12:00:38.955Z,47.40
2019-03-24T12:03:10.251Z,49.87
2019-03-24T12:05:38.411Z,47.27
2019-03-24T12:08:06.635Z,49.13
2019-03-24T12:10:35.070Z,50.37
2019-03-24T12:13:06.305Z,48.43
2019-03-24T12:15:34.520Z,49.07
2019-03-24T12:18:02.754Z,49.73
2019-03-24T12:20:30.844Z,47.67
2019-03-24T12:22:58.996Z,49.60
2019-03-24T12:25:27.350Z,48.30
2019-03-24T12:27:55.536Z,48.07
2019-03-24T12:30:23.689Z,48.00
2019-03-24T12:32:51.951Z,50.80
2019-03-24T12:35:23.163Z,48.73
2019-03-24T12:37:51.244Z,48.90
2019-03-24T12:40:19.442Z,50.50
2019-03-24T12:42:47.587Z,47.17
2019-03-24T12:45:15.790Z,51.73
2019-03-24T12:47:43.827Z,48.77
2019-03-24T12:50:13.968Z,48.87
2019-03-24T12:52:42.228Z,47.70
2019-03-24T12:55:10.472Z,50.40
2019-03-24T12:57:38.576Z,51.10
2019-03-24T13:00:08.324Z,46.13
2019-03-24T13:02:36.569Z,47.77
2019-03-24T13:05:06.675Z,48.80
2019-03-24T13:07:34.882Z,43.87
2019-03-24T13:10:03.308Z,46.67
2019-03-24T13:12:31.405Z,43.37
2019-03-24T13:14:59.566Z,43.03
2019-03-24T13:17:30.347Z,44.10
2019-03-24T13:19:58.905Z,43.13
2019-03-24T13:22:27.507Z,44.27
2019-03-24T13:24:55.644Z,38.63
2019-03-24T13:27:24.111Z,40.93
2019-03-24T13:29:52.222Z,41.00
2019-03-24T13:32:20.444Z,41.47
2019-03-24T13:34:48.638Z,40.10
2019-03-24T13:37:16.733Z,38.63
2019-03-24T13:39:44.788Z,38.63
2019-03-24T13:42:13.041Z,38.43
2019-03-24T13:44:41.158Z,40.40
2019-03-24T13:47:09.322Z,39.97
2019-03-24T13:49:37.885Z,41.20
2019-03-24T13:52:05.982Z,42.17
2019-03-24T13:54:34.075Z,41.27
2019-03-24T13:57:02.185Z,41.17
2019-03-24T13:59:30.349Z,43.53
2019-03-24T14:02:01.321Z,37.23
2019-03-24T14:04:29.512Z,37.80
2019-03-24T14:06:57.799Z,38.87
2019-03-24T14:09:26.343Z,39.20
2019-03-24T14:11:54.409Z,41.17
2019-03-24T14:14:22.524Z,38.97
2019-03-24T14:16:50.823Z,41.40
2019-03-24T14:19:18.948Z,41.80
2019-03-24T14:21:47.420Z,43.00
2019-03-24T14:24:15.509Z,39.97
2019-03-24T14:26:43.585Z,38.60
2019-03-24T14:29:12.128Z,37.77
2019-03-24T14:31:40.195Z,35.70
2019-03-24T14:34:08.359Z,36.00
2019-03-24T14:36:36.469Z,37.77
2019-03-24T14:39:05.833Z,37.63
2019-03-24T14:41:44.006Z,37.30
2019-03-24T14:44:12.361Z,36.83
2019-03-24T14:46:41.060Z,37.70
2019-03-24T14:49:09.149Z,38.10
2019-03-24T14:51:37.289Z,39.20
2019-03-24T14:54:05.413Z,37.07
2019-03-24T14:56:34.130Z,39.03
2019-03-24T14:59:02.339Z,37.73
2019-03-24T15:01:30.521Z,37.10
2019-03-24T15:03:58.978Z,36.43
2019-03-24T15:06:27.106Z,36.53
2019-03-24T15:08:55.241Z,36.13
2019-03-24T15:11:23.655Z,35.10
2019-03-24T15:14:41.272Z,37.77
2019-03-24T15:17:17.597Z,38.93
2019-03-24T15:19:45.780Z,37.50
2019-03-24T15:22:14.115Z,39.60
2019-03-24T15:24:42.200Z,36.37
2019-03-24T15:27:13.789Z,36.43
2019-03-24T15:29:42.083Z,35.90
2019-03-24T15:32:10.286Z,39.23
2019-03-24T15:34:38.821Z,40.00
2019-03-24T15:37:07.256Z,36.80
2019-03-24T15:39:35.431Z,38.27
2019-03-24T15:42:04.005Z,39.67
2019-03-24T15:44:32.214Z,42.10
2019-03-24T15:47:01.580Z,39.37
2019-03-24T15:49:31.639Z,41.40
2019-03-24T15:52:03.427Z,40.57
2019-03-24T15:54:31.869Z,38.63
2019-03-24T15:57:03.516Z,40.87
2019-03-24T15:59:38.717Z,40.40
2019-03-24T16:02:10.524Z,37.97
2019-03-24T16:04:38.683Z,39.57
2019-03-24T16:07:06.980Z,40.60
2019-03-24T16:09:35.349Z,36.03
2019-03-24T16:12:03.736Z,39.30
2019-03-24T16:14:31.982Z,38.60
2019-03-24T16:17:00.390Z,39.07
2019-03-24T16:19:28.720Z,41.10
2019-03-24T16:21:56.844Z,37.67
2019-03-24T16:24:27.216Z,40.13
2019-03-24T16:26:55.324Z,41.17
2019-03-24T16:29:25.433Z,39.60
2019-03-24T16:31:53.458Z,40.10
2019-03-24T16:34:23.283Z,42.37
2019-03-24T16:36:51.383Z,41.10
2019-03-24T16:39:19.494Z,41.73
2019-03-24T16:41:49.719Z,37.90
2019-03-24T16:44:17.855Z,38.63
2019-03-24T16:46:45.885Z,41.90
2019-03-24T16:49:14.031Z,39.83
2019-03-24T16:51:42.206Z,38.47
2019-03-24T16:54:11.353Z,37.53
2019-03-24T16:56:39.592Z,41.60
2019-03-24T16:59:07.783Z,40.70
2019-03-24T17:01:36.038Z,38.60
2019-03-24T17:04:04.172Z,38.40
2019-03-24T17:06:32.301Z,38.43
2019-03-24T17:09:00.701Z,38.83
2019-03-24T17:11:29.041Z,39.17
2019-03-24T17:13:58.960Z,37.67
2019-03-24T17:16:27.749Z,38.97
2019-03-24T17:18:55.983Z,39.80
2019-03-24T17:21:28.476Z,36.90
2019-03-24T17:23:56.710Z,38.97
2019-03-24T17:26:24.944Z,37.37
2019-03-24T17:28:53.660Z,39.13
2019-03-24T17:31:21.733Z,38.47
2019-03-24T17:33:49.982Z,38.27
2019-03-24T17:36:18.048Z,37.47
2019-03-24T17:38:46.138Z,39.13
2019-03-24T17:41:14.281Z,42.00
2019-03-24T17:43:42.418Z,36.60
2019-03-24T17:46:10.601Z,38.60
2019-03-24T17:48:38.772Z,35.13
2019-03-24T17:51:09.055Z,35.97
2019-03-24T17:53:37.810Z,40.27
2019-03-24T17:56:06.322Z,37.80
2019-03-24T17:58:34.436Z,36.10
2019-03-24T18:01:08.960Z,38.10
2019-03-24T18:03:37.124Z,38.40
2019-03-24T18:06:05.341Z,37.60
2019-03-24T18:08:33.737Z,36.90
2019-03-24T18:11:03.301Z,40.87
2019-03-24T18:13:31.618Z,27.77
2019-03-24T18:16:00.427Z,35.90
2019-03-24T18:18:40.876Z,36.27
2019-03-24T18:21:13.765Z,39.00
2019-03-24T18:23:44.666Z,36.80
2019-03-24T18:26:12.981Z,37.53
2019-03-24T18:28:41.212Z,38.87
2019-03-24T18:31:09.363Z,38.60
2019-03-24T18:33:49.993Z,36.10
2019-03-24T18:36:21.795Z,37.40
2019-03-24T18:38:50.211Z,40.37
2019-03-24T18:41:23.414Z,37.93
2019-03-24T18:43:53.247Z,36.40
2019-03-24T18:46:21.549Z,39.00
2019-03-24T18:48:50.337Z,38.27
2019-03-24T18:51:18.750Z,37.33
2019-03-24T18:53:46.874Z,37.57
2019-03-24T18:56:17.678Z,39.87
2019-03-24T18:58:46.930Z,38.00
2019-03-24T19:01:15.910Z,37.57
2019-03-24T19:03:46.495Z,39.27
2019-03-24T19:06:14.871Z,38.90
2019-03-24T19:08:43.412Z,51.90
2019-03-24T19:11:12.297Z,47.37
2019-03-24T19:13:40.935Z,45.00
2019-03-24T19:16:09.291Z,50.17
2019-03-24T19:18:44.145Z,44.70
2019-03-24T19:21:16.645Z,41.93
2019-03-24T19:23:45.097Z,37.77
2019-03-24T19:26:15.709Z,39.57
2019-03-24T19:28:46.134Z,37.90
2019-03-24T19:31:19.685Z,37.77
2019-03-24T19:33:53.154Z,42.17
2019-03-24T19:36:21.994Z,40.90
2019-03-24T19:38:50.385Z,38.77
2019-03-24T19:41:20.873Z,36.90
2019-03-24T19:43:49.257Z,37.87
2019-03-24T19:46:19.871Z,40.90
2019-03-24T19:48:48.261Z,38.50
2019-03-24T19:51:17.738Z,40.37
2019-03-24T19:53:45.789Z,40.00
2019-03-24T19:56:21.911Z,39.17
2019-03-24T19:58:53.578Z,42.80
2019-03-24T20:01:23.026Z,44.03
2019-03-24T20:03:54.138Z,41.10
2019-03-24T20:06:22.899Z,48.37
2019-03-24T20:08:53.747Z,46.67
2019-03-24T20:11:22.011Z,46.80
2019-03-24T20:13:51.997Z,42.63
2019-03-24T20:16:23.578Z,47.20
2019-03-24T20:18:55.219Z,44.20
2019-03-24T20:21:23.287Z,42.70
2019-03-24T20:23:51.373Z,41.90
2019-03-24T20:26:20.958Z,38.33
2019-03-24T20:28:50.293Z,40.07
2019-03-24T20:31:18.418Z,43.07
2019-03-24T20:33:46.468Z,41.23
2019-03-24T20:36:15.749Z,42.73
2019-03-24T20:38:47.726Z,41.67
2019-03-24T20:41:15.942Z,45.47
2019-03-24T20:43:45.557Z,42.67
2019-03-24T20:46:13.584Z,39.93
2019-03-24T20:48:46.047Z,43.70
2019-03-24T20:51:17.487Z,43.30
2019-03-24T20:53:51.601Z,47.97
2019-03-24T20:56:19.726Z,45.57
2019-03-24T20:58:47.928Z,46.80
2019-03-24T21:01:18.662Z,47.23
2019-03-24T21:03:51.501Z,48.93
2019-03-24T21:06:22.550Z,47.93
2019-03-24T21:08:53.062Z,47.33
2019-03-24T21:11:21.250Z,47.57
2019-03-24T21:13:49.403Z,44.03
2019-03-24T21:16:25.303Z,48.00
2019-03-24T21:18:52.728Z,44.97
2019-03-24T21:21:20.726Z,44.47
2019-03-24T21:23:49.396Z,43.83
2019-03-24T21:26:17.860Z,45.53
2019-03-24T21:28:45.881Z,42.67
2019-03-24T21:31:13.916Z,46.20
2019-03-24T21:33:42.291Z,47.10
2019-03-24T21:36:10.489Z,43.23
2019-03-24T21:38:38.562Z,39.53
2019-03-24T21:41:06.612Z,41.17
2019-03-24T21:43:34.736Z,40.23
2019-03-24T21:46:02.918Z,39.67
2019-03-24T21:48:31.148Z,41.90
2019-03-24T21:51:00.648Z,40.10
2019-03-24T21:53:40.361Z,42.30
2019-03-24T21:56:01.499Z,39.03
2019-03-24T21:58:36.444Z,44.40
2019-03-24T22:01:04.478Z,40.33
2019-03-24T22:03:32.523Z,37.77
2019-03-24T22:06:02.614Z,38.27
2019-03-24T22:08:30.682Z,40.10
2019-03-24T22:10:58.837Z,39.97
2019-03-24T22:13:26.976Z,41.80
2019-03-24T22:15:54.976Z,41.70
2019-03-24T22:18:22.997Z,39.83
2019-03-24T22:20:51.014Z,40.47
2019-03-24T22:23:19.045Z,38.20
2019-03-24T22:25:47.075Z,42.73
2019-03-24T22:28:15.100Z,37.13
2019-03-24T22:30:43.104Z,37.70
2019-03-24T22:33:11.208Z,38.60
2019-03-24T22:35:39.208Z,35.80
2019-03-24T22:38:07.313Z,37.63
2019-03-24T22:40:35.268Z,38.10
2019-03-24T22:43:03.477Z,37.37
2019-03-24T22:45:31.575Z,36.73
2019-03-24T22:47:59.685Z,39.47
2019-03-24T22:50:28.064Z,37.53
2019-03-24T22:52:56.095Z,35.93
2019-03-24T22:55:24.112Z,38.60
2019-03-24T22:57:52.189Z,38.13
2019-03-24T23:00:41.976Z,38.07
2019-03-24T23:03:10.184Z,38.70
2019-03-24T23:05:38.183Z,34.10
2019-03-24T23:08:06.224Z,26.87
2019-03-24T23:10:34.237Z,22.70
2019-03-24T23:13:02.424Z,23.10
2019-03-24T23:15:30.608Z,22.77
2019-03-24T23:17:58.621Z,20.90
2019-03-24T23:20:26.636Z,20.70
2019-03-24T23:22:54.652Z,21.87
2019-03-24T23:25:22.696Z,19.97
2019-03-24T23:27:50.727Z,21.00
2019-03-24T23:30:19.061Z,19.90
2019-03-24T23:32:47.112Z,20.47
2019-03-24T23:35:15.427Z,20.60
2019-03-24T23:37:43.436Z,19.77
2019-03-24T23:40:11.779Z,21.83
2019-03-24T23:42:39.776Z,21.27
2019-03-24T23:45:08.311Z,21.93
2019-03-24T23:47:36.325Z,20.77
2019-03-24T23:50:05.011Z,22.77
2019-03-24T23:52:33.017Z,23.37
2019-03-24T23:55:01.129Z,23.50
2019-03-24T23:57:29.163Z,23.10
2019-03-24T23:59:57.193Z,26.27
